This is the latest recevied weather packets stored in our database for station/object CT2IRJ-11. If no packets are shown the sender has not sent any weather packets the latest 10 day(s).
| Time | Temp. | Humidity | Pressure | Rain* | Wind** | Luminosity | Snow |
|---|---|---|---|---|---|---|---|
| 1777902809 | 21.67° C | 51% | 1016.3 hPa | 0 mm | - | 763 W/m² | - |
| 1777902509 | 21.67° C | 50% | 1016.3 hPa | 0 mm | - | 829 W/m² | - |
| 1777902209 | 20.56° C | 54% | 1016.3 hPa | 0 mm | - | 639 W/m² | - |
| 1777901910 | 20° C | 57% | 1016.3 hPa | 0 mm | - | 481 W/m² | - |
| 1777901609 | 20.56° C | 56% | 1015.9 hPa | 0 mm | - | 186 W/m² | - |
| 1777901310 | 21.11° C | 54% | 1016.3 hPa | 0 mm | - | 186 W/m² | - |
| 1777901010 | 20° C | 55% | 1016.3 hPa | 0 mm | - | 622 W/m² | - |
| 1777900711 | 21.11° C | 55% | 1015.9 hPa | 0 mm | - | 127 W/m² | - |
| 1777900410 | 21.11° C | 52% | 1016.3 hPa | 0 mm | - | 193 W/m² | - |
| 1777900110 | 21.11° C | 48% | 1016.3 hPa | 0 mm | - | 253 W/m² | - |
| 1777899810 | 21.67° C | 51% | 1016.3 hPa | 0 mm | - | 757 W/m² | - |
| 1777899512 | 21.67° C | 51% | 1016.3 hPa | 0 mm | - | 817 W/m² | - |
| 1777899210 | 21.11° C | 53% | 1016.6 hPa | 0 mm | - | 793 W/m² | - |
| 1777898909 | 20° C | 59% | 1016.6 hPa | 0 mm | - | 810 W/m² | - |
| 1777898610 | 19.44° C | 59% | 1016.6 hPa | 0 mm | - | 530 W/m² | - |
| 1777898310 | 19.44° C | 58% | 1016.6 hPa | 0 mm | - | 190 W/m² | - |
| 1777898010 | 19.44° C | 59% | 1016.6 hPa | 0 mm | - | 186 W/m² | - |
| 1777897712 | 20° C | 57% | 1016.3 hPa | 0 mm | - | 141 W/m² | - |
| 1777897410 | 21.11° C | 55% | 1016.6 hPa | 0 mm | - | 155 W/m² | - |
| 1777897110 | 20° C | 59% | 1016.3 hPa | 0 mm | - | 703 W/m² | - |
| 1777896810 | 20° C | 58% | 1016.6 hPa | 0 mm | - | 571 W/m² | - |
| 1777896510 | 20° C | 59% | 1016.3 hPa | 0 mm | - | 627 W/m² | - |
| 1777896211 | 20° C | 59% | 1016.6 hPa | 0 mm | - | 479 W/m² | - |
| 1777895630 | 21.11° C | 56% | 1016.6 hPa | 0 mm | - | 634 W/m² | - |
| 1777895309 | 20° C | 58% | 1016.6 hPa | 0 mm | - | 712 W/m² | - |
* Rain latest hour (hover to see other rain measurements)
** Current wind speed in m/s (hover to see current wind gust speed)